createdAt,value
2019-05-06T00:00:35.288Z,70.3796
2019-05-06T00:01:38.307Z,70.4834
2019-05-06T00:02:43.448Z,70.4834
2019-05-06T00:03:47.293Z,70.4834
2019-05-06T00:04:51.287Z,70.4834
2019-05-06T00:05:54.466Z,70.3796
2019-05-06T00:06:58.275Z,70.3796
2019-05-06T00:08:03.897Z,70.2454
2019-05-06T00:09:07.289Z,70.1416
2019-05-06T00:10:13.392Z,70.0378
2019-05-06T00:11:16.303Z,70.0378
2019-05-06T00:12:20.286Z,70.0378
2019-05-06T00:13:24.147Z,70.1416
2019-05-06T00:14:27.266Z,70.2454
2019-05-06T00:15:31.277Z,70.3491
2019-05-06T00:16:34.906Z,70.5566
2019-05-06T00:17:38.325Z,70.5566
2019-05-06T00:18:41.306Z,70.5566
2019-05-06T00:19:45.317Z,70.5566
2019-05-06T00:20:48.248Z,70.6604
2019-05-06T00:21:51.281Z,70.6604
2019-05-06T00:22:55.275Z,70.6604
2019-05-06T00:23:58.286Z,70.7642
2019-05-06T00:25:02.297Z,70.7642
2019-05-06T00:26:05.283Z,70.7275
2019-05-06T00:27:09.302Z,70.8313
2019-05-06T00:28:13.657Z,70.9351
2019-05-06T00:29:17.317Z,70.9351
2019-05-06T00:30:21.288Z,71.0388
2019-05-06T00:31:24.285Z,71.0388
2019-05-06T00:32:28.290Z,71.1426
2019-05-06T00:33:31.292Z,71.1426
2019-05-06T00:34:35.337Z,71.0388
2019-05-06T00:35:38.294Z,71.1426
2019-05-06T00:36:43.285Z,71.1121
2019-05-06T00:37:47.295Z,71.1121
2019-05-06T00:38:50.302Z,71.0083
2019-05-06T00:39:54.320Z,71.0083
2019-05-06T00:40:57.307Z,71.0083
2019-05-06T00:42:01.324Z,70.9045
2019-05-06T00:43:04.818Z,71.0083
2019-05-06T00:44:08.317Z,71.1121
2019-05-06T00:45:13.592Z,71.1121
2019-05-06T00:46:16.285Z,71.1121
2019-05-06T00:47:20.286Z,71.1121
2019-05-06T00:48:24.435Z,71.1121
2019-05-06T00:49:28.267Z,71.1121
2019-05-06T00:50:31.295Z,71.1121
2019-05-06T00:51:34.300Z,71.2158
2019-05-06T00:52:38.308Z,71.3196
2019-05-06T00:53:41.265Z,71.4233
2019-05-06T00:54:45.267Z,71.4233
2019-05-06T00:55:48.335Z,71.4233
2019-05-06T00:56:51.280Z,71.3196
2019-05-06T00:57:54.540Z,71.3196
2019-05-06T00:58:58.283Z,71.4233
2019-05-06T01:00:04.168Z,71.5271
2019-05-06T01:01:07.303Z,71.6309
2019-05-06T01:02:11.294Z,71.5271
2019-05-06T01:03:14.298Z,71.6309
2019-05-06T01:04:18.316Z,71.5271
2019-05-06T01:05:21.285Z,71.4233
2019-05-06T01:06:24.660Z,71.3196
2019-05-06T01:07:28.297Z,71.4233
2019-05-06T01:08:31.286Z,71.6309
2019-05-06T01:09:35.317Z,71.4233
2019-05-06T01:10:38.301Z,71.4233
2019-05-06T01:11:42.316Z,71.4539
2019-05-06T01:12:47.279Z,71.4539
2019-05-06T01:13:50.310Z,71.3501
2019-05-06T01:14:54.626Z,71.3501
2019-05-06T01:15:58.275Z,71.5576
2019-05-06T01:17:01.334Z,71.5576
2019-05-06T01:18:04.362Z,71.3501
2019-05-06T01:19:08.288Z,71.3501
2019-05-06T01:20:11.261Z,71.3501
2019-05-06T01:21:14.667Z,71.2463
2019-05-06T01:22:18.306Z,71.2463
2019-05-06T01:23:23.379Z,71.1426
2019-05-06T01:24:27.265Z,71.1426
2019-05-06T01:25:30.291Z,71.0388
2019-05-06T01:26:34.339Z,71.0388
2019-05-06T01:27:37.278Z,70.9351
2019-05-06T01:28:40.296Z,71.0388
2019-05-06T01:29:44.288Z,71.0388
2019-05-06T01:30:47.311Z,71.2463
2019-05-06T01:31:51.337Z,71.3501
2019-05-06T01:32:54.488Z,71.4539
2019-05-06T01:33:58.288Z,71.4539
2019-05-06T01:35:00.271Z,71.5576
2019-05-06T01:36:04.537Z,71.5576
2019-05-06T01:37:07.320Z,71.6614
2019-05-06T01:38:10.279Z,71.7651
2019-05-06T01:39:14.298Z,71.8689
2019-05-06T01:40:17.307Z,71.8689
2019-05-06T01:41:21.265Z,71.9727
2019-05-06T01:42:24.656Z,72.1802
2019-05-06T01:43:27.286Z,72.1802
2019-05-06T01:44:30.425Z,72.4243
2019-05-06T01:45:34.874Z,72.5281
2019-05-06T01:46:38.320Z,72.6318
2019-05-06T01:47:41.300Z,72.6318
2019-05-06T01:48:45.289Z,72.6318
2019-05-06T01:49:48.288Z,72.6318
2019-05-06T01:50:51.299Z,72.6318
2019-05-06T01:51:55.294Z,72.4915
2019-05-06T01:52:58.312Z,72.3877
2019-05-06T01:54:03.752Z,72.3877
2019-05-06T01:55:07.286Z,72.3877
2019-05-06T01:56:11.304Z,72.4915
2019-05-06T01:57:14.274Z,72.4915
2019-05-06T01:58:17.350Z,72.4915
2019-05-06T01:59:21.272Z,72.4915
2019-05-06T02:00:24.294Z,72.4915
2019-05-06T02:01:28.283Z,72.4915
2019-05-06T02:02:31.303Z,72.4915
2019-05-06T02:03:35.328Z,72.4915
2019-05-06T02:04:38.292Z,72.4915
2019-05-06T02:05:41.270Z,72.3877
2019-05-06T02:06:45.290Z,72.3877
2019-05-06T02:07:48.256Z,72.3877
2019-05-06T02:08:53.994Z,72.3877
2019-05-06T02:09:57.310Z,72.3877
2019-05-06T02:11:01.305Z,72.4915
2019-05-06T02:12:04.678Z,72.3877
2019-05-06T02:13:08.325Z,72.3877
2019-05-06T02:14:13.994Z,72.2839
2019-05-06T02:15:16.291Z,72.1802
2019-05-06T02:16:20.275Z,72.0764
2019-05-06T02:17:23.875Z,71.9727
2019-05-06T02:18:27.311Z,71.9727
2019-05-06T02:19:30.269Z,71.9727
2019-05-06T02:20:33.980Z,71.8689
2019-05-06T02:21:37.270Z,71.8689
2019-05-06T02:22:40.304Z,71.7651
2019-05-06T02:23:44.298Z,71.6614
2019-05-06T02:24:47.297Z,71.5576
2019-05-06T02:25:51.261Z,71.5576
2019-05-06T02:26:54.467Z,71.5576
2019-05-06T02:27:57.304Z,71.4539
2019-05-06T02:29:04.238Z,71.5576
2019-05-06T02:30:07.282Z,71.5576
2019-05-06T02:31:11.298Z,71.5576
2019-05-06T02:32:25.528Z,71.6614
2019-05-06T02:33:24.733Z,71.7651
2019-05-06T02:34:28.357Z,71.7651
2019-05-06T02:35:31.283Z,71.7651
2019-05-06T02:36:35.303Z,71.7651
2019-05-06T02:37:38.265Z,71.7651
2019-05-06T02:38:50.472Z,71.7651
2019-05-06T02:39:53.135Z,71.7651
2019-05-06T02:40:57.262Z,71.7651
2019-05-06T02:42:00.298Z,71.7651
2019-05-06T02:43:04.274Z,71.7651
2019-05-06T02:44:10.250Z,71.8689
2019-05-06T02:45:15.324Z,71.9727
2019-05-06T02:46:19.291Z,71.8689
2019-05-06T02:47:23.012Z,71.8689
2019-05-06T02:48:27.293Z,71.8689
2019-05-06T02:49:32.795Z,71.8689
2019-05-06T02:50:36.299Z,71.8689
2019-05-06T02:51:40.308Z,71.8689
2019-05-06T02:52:44.049Z,71.8689
2019-05-06T02:53:48.295Z,71.8689
2019-05-06T02:54:53.691Z,71.8689
2019-05-06T02:55:57.317Z,71.8689
2019-05-06T02:57:00.265Z,71.8689
2019-05-06T02:58:03.338Z,71.8689
2019-05-06T02:59:07.271Z,71.8689
2019-05-06T03:00:13.085Z,71.8689
2019-05-06T03:01:17.318Z,71.8689
2019-05-06T03:02:35.593Z,71.8689
2019-05-06T03:03:28.287Z,71.7651
2019-05-06T03:04:33.189Z,71.7651
2019-05-06T03:05:36.318Z,71.7651
2019-05-06T03:06:40.306Z,71.7651
2019-05-06T03:07:43.732Z,71.6614
2019-05-06T03:08:47.289Z,71.6614
2019-05-06T03:09:53.173Z,71.5576
2019-05-06T03:10:57.337Z,71.4539
2019-05-06T03:12:03.341Z,71.2463
2019-05-06T03:13:07.299Z,71.2463
2019-05-06T03:14:13.954Z,71.0388
2019-05-06T03:15:17.331Z,70.9351
2019-05-06T03:16:23.764Z,70.8313
2019-05-06T03:17:27.296Z,70.7642
2019-05-06T03:18:32.765Z,70.6604
2019-05-06T03:19:36.285Z,70.4529
2019-05-06T03:20:39.300Z,70.4529
2019-05-06T03:21:44.817Z,70.3491
2019-05-06T03:22:48.291Z,70.3491
2019-05-06T03:23:54.290Z,70.3491
2019-05-06T03:24:57.301Z,70.3796
2019-05-06T03:26:03.732Z,70.3796
2019-05-06T03:27:09.286Z,70.2759
2019-05-06T03:28:13.258Z,70.2759
2019-05-06T03:29:17.287Z,70.2759
2019-05-06T03:30:25.065Z,70.2759
2019-05-06T03:31:28.360Z,70.2759
2019-05-06T03:32:37.568Z,70.3064
2019-05-06T03:33:56.904Z,70.3064
2019-05-06T03:35:07.810Z,70.3064
2019-05-06T03:36:06.126Z,70.4102
2019-05-06T03:37:07.204Z,70.4102
2019-05-06T03:38:13.752Z,70.5139
2019-05-06T03:39:17.282Z,70.6177
2019-05-06T03:40:22.965Z,70.7214
2019-05-06T03:41:26.664Z,70.9290
2019-05-06T03:42:33.288Z,71.0327
2019-05-06T03:43:36.279Z,71.1365
2019-05-06T03:44:40.301Z,71.1365
2019-05-06T03:45:43.292Z,71.1060
2019-05-06T03:46:47.287Z,71.1060
2019-05-06T03:47:50.306Z,71.0022
2019-05-06T03:48:54.297Z,71.0022
2019-05-06T03:49:57.281Z,71.0022
2019-05-06T03:51:00.302Z,71.0022
2019-05-06T03:52:04.300Z,71.0022
2019-05-06T03:53:07.330Z,71.0022
2019-05-06T03:54:12.784Z,71.1060
2019-05-06T03:55:16.275Z,71.2097
2019-05-06T03:56:23.821Z,71.2097
2019-05-06T03:57:27.272Z,71.3135
2019-05-06T03:58:29.342Z,71.3135
2019-05-06T03:59:33.787Z,71.3135
2019-05-06T04:00:37.284Z,71.2097
2019-05-06T04:01:42.834Z,71.2097
2019-05-06T04:02:45.424Z,71.1060
2019-05-06T04:03:53.717Z,71.1060
2019-05-06T04:04:57.281Z,71.1060
2019-05-06T04:06:00.371Z,71.1060
2019-05-06T04:07:04.286Z,71.2097
2019-05-06T04:08:07.309Z,71.3135
2019-05-06T04:09:13.221Z,71.3135
2019-05-06T04:10:16.346Z,71.5210
2019-05-06T04:11:22.667Z,71.6248
2019-05-06T04:12:25.309Z,71.6248
2019-05-06T04:13:28.341Z,71.7285
2019-05-06T04:14:33.785Z,71.9055
2019-05-06T04:15:37.272Z,71.9055
2019-05-06T04:16:44.123Z,72.0093
2019-05-06T04:17:47.281Z,72.2168
2019-05-06T04:18:53.741Z,72.4243
2019-05-06T04:19:57.344Z,72.4243
2019-05-06T04:21:03.595Z,72.8394
2019-05-06T04:22:07.296Z,72.9431
2019-05-06T04:23:12.977Z,73.0469
2019-05-06T04:24:17.290Z,73.2544
2019-05-06T04:25:23.177Z,73.4619
2019-05-06T04:26:27.296Z,73.6694
2019-05-06T04:27:33.278Z,73.4619
2019-05-06T04:28:37.308Z,73.3215
2019-05-06T04:29:42.794Z,73.4253
2019-05-06T04:30:46.317Z,73.3215
2019-05-06T04:31:50.326Z,73.3215
2019-05-06T04:32:53.567Z,73.2178
2019-05-06T04:34:09.982Z,73.2178
2019-05-06T04:35:05.300Z,73.2178
2019-05-06T04:36:08.342Z,73.2178
2019-05-06T04:37:14.463Z,73.2178
2019-05-06T04:38:18.303Z,73.5291
2019-05-06T04:39:23.387Z,73.3215
2019-05-06T04:40:27.307Z,73.4924
2019-05-06T04:41:34.135Z,73.5962
2019-05-06T04:42:37.262Z,73.8037
2019-05-06T04:43:40.319Z,73.9075
2019-05-06T04:44:44.289Z,73.9441
2019-05-06T04:45:47.289Z,73.9441
2019-05-06T04:46:54.087Z,74.0479
2019-05-06T04:47:57.297Z,74.2554
2019-05-06T04:49:03.834Z,74.5667
2019-05-06T04:50:07.286Z,74.6338
2019-05-06T04:51:13.390Z,74.5300
2019-05-06T04:52:17.351Z,74.5300
2019-05-06T04:53:26.474Z,74.5300
2019-05-06T04:54:28.283Z,74.7375
2019-05-06T04:55:33.619Z,74.8413
2019-05-06T04:56:37.315Z,74.7375
2019-05-06T04:57:40.344Z,74.6338
2019-05-06T04:58:43.289Z,74.8413
2019-05-06T04:59:47.330Z,74.7375
2019-05-06T05:00:52.810Z,74.8413
2019-05-06T05:01:57.346Z,74.6338
2019-05-06T05:02:59.319Z,74.6338
2019-05-06T05:04:03.679Z,74.4263
2019-05-06T05:05:06.366Z,74.2188
2019-05-06T05:06:09.280Z,74.2188
2019-05-06T05:07:13.310Z,74.2188
2019-05-06T05:08:16.317Z,74.3225
2019-05-06T05:09:22.865Z,74.4263
2019-05-06T05:10:26.274Z,74.4263
2019-05-06T05:11:33.091Z,74.4263
2019-05-06T05:12:36.309Z,74.5300
2019-05-06T05:13:39.306Z,74.4263
2019-05-06T05:14:43.284Z,74.5300
2019-05-06T05:15:46.306Z,74.5300
2019-05-06T05:16:50.304Z,74.4263
2019-05-06T05:17:53.324Z,74.4263
2019-05-06T05:18:57.298Z,74.4263
2019-05-06T05:20:02.107Z,74.5667
2019-05-06T05:21:05.313Z,74.5667
2019-05-06T05:22:09.276Z,74.5667
2019-05-06T05:23:12.378Z,74.4629
2019-05-06T05:24:16.303Z,74.4629
2019-05-06T05:25:19.309Z,74.5667
2019-05-06T05:26:23.302Z,74.5667
2019-05-06T05:27:26.273Z,74.5667
2019-05-06T05:28:29.346Z,74.5667
2019-05-06T05:29:33.292Z,74.5667
2019-05-06T05:30:36.340Z,74.5667
2019-05-06T05:31:40.306Z,74.5667
2019-05-06T05:32:43.334Z,74.5667
2019-05-06T05:33:47.311Z,74.5667
2019-05-06T05:34:52.094Z,74.4629
2019-05-06T05:35:54.311Z,74.3591
2019-05-06T05:36:58.283Z,74.3591
2019-05-06T05:38:03.049Z,74.4629
2019-05-06T05:39:07.325Z,74.5667
2019-05-06T05:40:10.324Z,74.7742
2019-05-06T05:41:14.293Z,75.0488
2019-05-06T05:42:17.298Z,75.3601
2019-05-06T05:43:20.292Z,75.5676
2019-05-06T05:44:24.341Z,75.4639
2019-05-06T05:45:28.317Z,75.3601
2019-05-06T05:46:33.016Z,75.2197
2019-05-06T05:47:36.322Z,75.0183
2019-05-06T05:48:39.369Z,75.0183
2019-05-06T05:49:42.338Z,75.0183
2019-05-06T05:50:45.296Z,75.0183
2019-05-06T05:51:49.303Z,74.7070
2019-05-06T05:52:52.297Z,74.6033
2019-05-06T05:53:56.320Z,74.4629
2019-05-06T05:55:02.576Z,74.4629
2019-05-06T05:56:06.275Z,74.4629
2019-05-06T05:57:09.296Z,74.4629
2019-05-06T05:58:12.931Z,74.5667
2019-05-06T05:59:16.313Z,74.9146
2019-05-06T06:00:19.331Z,75.2197
2019-05-06T06:01:23.414Z,75.6348
2019-05-06T06:02:26.267Z,76.0498
2019-05-06T06:03:32.020Z,77.0203
2019-05-06T06:04:36.282Z,77.4353
2019-05-06T06:05:39.411Z,78.1616
2019-05-06T06:06:43.337Z,78.7170
2019-05-06T06:07:46.352Z,78.9246
2019-05-06T06:08:52.122Z,79.2358
2019-05-06T06:09:56.298Z,79.6509
2019-05-06T06:11:00.341Z,80.0598
2019-05-06T06:12:03.301Z,80.1636
2019-05-06T06:13:06.285Z,80.4749
2019-05-06T06:14:12.569Z,80.7861
2019-05-06T06:15:16.326Z,80.7861
2019-05-06T06:16:20.324Z,80.8899
2019-05-06T06:17:23.357Z,80.8899
2019-05-06T06:18:27.311Z,80.9937
2019-05-06T06:19:30.317Z,80.9937
2019-05-06T06:20:33.324Z,81.0974
2019-05-06T06:21:37.333Z,81.2012
2019-05-06T06:22:42.449Z,81.3049
2019-05-06T06:23:46.309Z,81.6162
2019-05-06T06:24:49.337Z,81.6162
2019-05-06T06:25:53.328Z,81.7871
2019-05-06T06:26:56.326Z,81.8909
2019-05-06T06:28:02.689Z,81.6833
2019-05-06T06:29:05.338Z,81.5796
2019-05-06T06:30:08.307Z,81.8542
2019-05-06T06:31:12.337Z,81.6467
2019-05-06T06:32:14.329Z,81.1279
2019-05-06T06:33:18.293Z,81.4392
2019-05-06T06:34:22.287Z,81.5430
2019-05-06T06:35:25.316Z,81.2317
2019-05-06T06:36:29.319Z,81.1279
2019-05-06T06:37:33.214Z,81.0242
2019-05-06T06:38:37.299Z,81.0913
2019-05-06T06:39:42.274Z,81.0913
2019-05-06T06:40:46.322Z,80.9875
2019-05-06T06:41:49.258Z,80.9875
2019-05-06T06:42:52.519Z,80.9875
2019-05-06T06:43:56.296Z,80.9509
2019-05-06T06:44:59.304Z,80.7434
2019-05-06T06:46:03.341Z,80.6396
2019-05-06T06:47:06.303Z,80.4321
2019-05-06T06:48:12.224Z,80.1880
2019-05-06T06:49:15.290Z,80.2917
2019-05-06T06:50:18.334Z,79.3640
2019-05-06T06:51:23.552Z,78.6377
2019-05-06T06:52:27.317Z,78.9490
2019-05-06T06:53:32.687Z,78.9856
2019-05-06T06:54:36.327Z,78.8818
2019-05-06T06:55:39.373Z,78.8818
2019-05-06T06:56:42.401Z,78.3630
2019-05-06T06:57:45.328Z,78.7781
2019-05-06T06:58:49.286Z,79.0894
2019-05-06T06:59:52.484Z,79.1931
2019-05-06T07:00:56.284Z,79.1931
2019-05-06T07:01:59.326Z,79.1931
2019-05-06T07:03:03.295Z,79.1931
2019-05-06T07:04:10.444Z,79.0894
2019-05-06T07:05:24.353Z,79.0894
2019-05-06T07:06:22.441Z,79.0894
2019-05-06T07:07:39.532Z,79.0894
2019-05-06T07:08:37.357Z,78.9490
2019-05-06T07:09:41.905Z,79.1565
2019-05-06T07:10:45.314Z,79.1565
2019-05-06T07:11:48.313Z,79.1565
2019-05-06T07:12:50.442Z,79.1565
2019-05-06T07:13:54.298Z,79.1565
2019-05-06T07:14:57.295Z,79.1199
2019-05-06T07:16:02.983Z,79.1199
2019-05-06T07:17:06.300Z,79.1199
2019-05-06T07:18:13.291Z,79.1199
2019-05-06T07:19:17.326Z,79.0833
2019-05-06T07:20:22.869Z,79.0833
2019-05-06T07:21:26.338Z,79.0833
2019-05-06T07:22:29.291Z,79.1870
2019-05-06T07:23:33.336Z,79.1870
2019-05-06T07:24:36.294Z,79.2542
2019-05-06T07:25:42.829Z,78.8391
2019-05-06T07:26:46.285Z,78.7354
2019-05-06T07:27:48.355Z,78.9429
2019-05-06T07:28:52.737Z,79.0466
2019-05-06T07:29:56.300Z,77.9053
2019-05-06T07:31:14.882Z,76.6663
2019-05-06T07:32:08.276Z,77.2888
2019-05-06T07:33:13.340Z,76.8738
2019-05-06T07:34:17.291Z,77.4963
2019-05-06T07:35:22.410Z,77.6001
2019-05-06T07:36:27.338Z,77.4963
2019-05-06T07:37:32.627Z,78.3203
2019-05-06T07:38:36.290Z,78.4241
2019-05-06T07:39:38.272Z,78.5278
2019-05-06T07:40:42.294Z,78.4241
2019-05-06T07:41:46.140Z,78.1128
2019-05-06T07:42:49.289Z,77.9785
2019-05-06T07:43:53.310Z,77.8748
2019-05-06T07:44:56.337Z,77.2522
2019-05-06T07:46:02.460Z,77.1484
2019-05-06T07:47:06.313Z,76.8372
2019-05-06T07:48:12.647Z,76.6357
2019-05-06T07:49:16.343Z,76.5320
2019-05-06T07:50:19.268Z,76.6357
2019-05-06T07:51:23.932Z,76.3245
2019-05-06T07:52:27.358Z,76.0132
2019-05-06T07:53:32.069Z,75.4272
2019-05-06T07:54:35.276Z,75.9094
2019-05-06T07:55:39.309Z,76.2207
2019-05-06T07:56:42.843Z,76.2207
2019-05-06T07:57:46.333Z,75.9094
2019-05-06T07:58:52.762Z,75.7019
2019-05-06T07:59:56.278Z,75.8057
2019-05-06T08:01:02.667Z,75.8057
2019-05-06T08:02:06.298Z,75.3906
2019-05-06T08:03:10.349Z,75.2930
2019-05-06T08:04:14.342Z,75.3906
2019-05-06T08:05:17.301Z,75.2930
2019-05-06T08:06:22.647Z,75.3906
2019-05-06T08:07:26.294Z,75.1892
2019-05-06T08:08:30.353Z,75.1892
2019-05-06T08:09:33.315Z,75.1892
2019-05-06T08:10:37.333Z,75.1892
2019-05-06T08:11:42.155Z,75.1892
2019-05-06T08:12:45.337Z,74.9817
2019-05-06T08:13:49.319Z,74.4629
2019-05-06T08:14:52.548Z,73.8464
2019-05-06T08:15:56.330Z,73.5352
2019-05-06T08:16:58.298Z,73.4314
2019-05-06T08:18:03.485Z,73.3948
2019-05-06T08:19:07.357Z,73.2910
2019-05-06T08:20:12.721Z,73.1934
2019-05-06T08:21:16.337Z,73.2910
2019-05-06T08:22:19.312Z,72.9858
2019-05-06T08:23:23.314Z,72.1558
2019-05-06T08:24:26.346Z,72.6746
2019-05-06T08:25:32.811Z,72.6746
2019-05-06T08:26:36.255Z,72.3633
2019-05-06T08:27:39.307Z,72.8821
2019-05-06T08:28:44.520Z,72.2595
2019-05-06T08:29:48.362Z,71.9543
2019-05-06T08:30:53.122Z,70.9167
2019-05-06T08:31:56.315Z,70.8191
2019-05-06T08:33:02.242Z,70.4041
2019-05-06T08:34:05.303Z,71.3318
2019-05-06T08:35:09.972Z,71.7468
2019-05-06T08:36:14.790Z,71.2280
2019-05-06T08:37:18.301Z,71.1975
2019-05-06T08:38:22.651Z,71.3013
2019-05-06T08:39:26.312Z,71.6064
2019-05-06T08:40:32.089Z,71.5088
2019-05-06T08:41:35.327Z,71.3684
2019-05-06T08:42:38.277Z,70.3369
2019-05-06T08:43:42.331Z,69.6899
2019-05-06T08:44:45.301Z,69.7876
2019-05-06T08:45:49.384Z,69.4824
2019-05-06T08:46:53.254Z,67.7307
2019-05-06T08:47:57.292Z,67.6270
2019-05-06T08:49:00.839Z,67.4194
2019-05-06T08:50:05.305Z,68.1396
2019-05-06T08:51:09.333Z,69.1406
2019-05-06T08:52:12.997Z,66.9739
2019-05-06T08:53:16.308Z,66.8701
2019-05-06T08:54:19.311Z,67.9016
2019-05-06T08:55:23.342Z,68.1091
2019-05-06T08:56:26.324Z,68.5242
2019-05-06T08:57:29.332Z,68.9026
2019-05-06T08:58:33.334Z,68.3899
2019-05-06T08:59:36.341Z,68.2495
2019-05-06T09:00:40.291Z,68.7683
2019-05-06T09:01:43.322Z,68.2190
2019-05-06T09:02:47.307Z,67.4988
2019-05-06T09:04:05.046Z,62.8723
2019-05-06T09:04:58.301Z,62.3291
2019-05-06T09:06:03.168Z,64.3860
2019-05-06T09:07:07.338Z,65.7959
2019-05-06T09:08:13.634Z,66.4124
2019-05-06T09:09:17.369Z,67.6147
2019-05-06T09:10:22.695Z,67.3035
2019-05-06T09:11:26.292Z,64.7034
2019-05-06T09:12:29.320Z,66.4185
2019-05-06T09:13:33.358Z,66.6260
2019-05-06T09:14:36.321Z,65.8752
2019-05-06T09:15:40.307Z,64.5447
2019-05-06T09:16:43.928Z,63.6169
2019-05-06T09:17:48.335Z,62.5610
2019-05-06T09:18:53.341Z,65.5396
2019-05-06T09:19:56.321Z,66.3574
2019-05-06T09:21:02.819Z,66.6687
2019-05-06T09:22:06.302Z,66.8701
2019-05-06T09:23:12.269Z,66.1194
2019-05-06T09:24:16.277Z,66.7358
2019-05-06T09:25:20.324Z,67.2485
2019-05-06T09:26:23.301Z,67.6575
2019-05-06T09:27:26.299Z,65.3015
2019-05-06T09:28:30.347Z,65.1001
2019-05-06T09:29:33.284Z,66.1194
2019-05-06T09:30:37.328Z,66.2231
2019-05-06T09:31:39.327Z,63.9709
2019-05-06T09:32:43.315Z,64.0747
2019-05-06T09:33:46.320Z,64.2761
2019-05-06T09:34:49.283Z,63.2507
2019-05-06T09:35:53.306Z,63.1470
2019-05-06T09:36:56.323Z,64.8926
2019-05-06T09:38:02.209Z,65.9180
2019-05-06T09:39:05.328Z,64.3799
2019-05-06T09:40:09.310Z,65.7104
2019-05-06T09:41:13.342Z,65.4053
2019-05-06T09:42:16.325Z,59.2529
2019-05-06T09:43:22.282Z,62.3291
2019-05-06T09:44:26.333Z,58.8440
2019-05-06T09:45:29.309Z,58.3313
2019-05-06T09:46:32.320Z,60.4858
2019-05-06T09:47:37.273Z,62.3291
2019-05-06T09:48:42.325Z,62.9456
2019-05-06T09:49:46.309Z,61.5112
2019-05-06T09:50:50.419Z,62.7380
2019-05-06T09:51:53.325Z,64.2456
2019-05-06T09:52:57.275Z,63.6353
2019-05-06T09:54:03.742Z,64.9658
2019-05-06T09:55:07.335Z,64.7278
2019-05-06T09:56:12.965Z,63.4705
2019-05-06T09:57:16.314Z,62.9272
2019-05-06T09:58:22.733Z,61.9080
2019-05-06T09:59:26.327Z,62.9028
2019-05-06T10:00:32.694Z,62.8723
2019-05-06T10:01:36.404Z,63.1775
2019-05-06T10:02:42.858Z,62.4329
2019-05-06T10:03:46.333Z,62.3291
2019-05-06T10:04:49.284Z,62.9150
2019-05-06T10:05:55.375Z,63.0188
2019-05-06T10:07:00.103Z,60.5347
2019-05-06T10:08:04.336Z,61.7615
2019-05-06T10:09:07.293Z,61.0474
2019-05-06T10:10:11.316Z,61.0474
2019-05-06T10:11:13.343Z,61.3525
2019-05-06T10:12:16.339Z,60.9436
2019-05-06T10:13:20.308Z,59.2102
2019-05-06T10:14:23.565Z,61.5601
2019-05-06T10:15:27.349Z,60.0281
2019-05-06T10:16:32.394Z,55.9692
2019-05-06T10:17:36.313Z,57.5012
2019-05-06T10:18:39.332Z,53.3142
2019-05-06T10:19:42.886Z,52.9297
2019-05-06T10:20:47.283Z,55.6885
2019-05-06T10:21:50.347Z,57.5562
2019-05-06T10:22:54.323Z,56.7383
2019-05-06T10:23:57.314Z,57.6599
2019-05-06T10:25:03.716Z,60.4187
2019-05-06T10:26:07.303Z,59.7046
2019-05-06T10:27:12.089Z,58.1665
2019-05-06T10:28:16.297Z,58.7830
2019-05-06T10:29:19.312Z,56.3293
2019-05-06T10:30:23.311Z,55.2063
2019-05-06T10:31:26.311Z,57.2510
2019-05-06T10:32:30.318Z,58.0688
2019-05-06T10:33:33.317Z,58.3740
2019-05-06T10:34:36.294Z,57.8613
2019-05-06T10:35:42.685Z,59.1919
2019-05-06T10:36:46.336Z,54.1809
2019-05-06T10:37:52.481Z,54.4128
2019-05-06T10:38:56.325Z,56.9702
2019-05-06T10:40:02.861Z,58.2947
2019-05-06T10:41:07.604Z,58.3984
2019-05-06T10:42:13.211Z,60.1379
2019-05-06T10:43:17.337Z,54.7180
2019-05-06T10:44:22.376Z,54.5105
2019-05-06T10:45:26.305Z,53.4912
2019-05-06T10:46:28.345Z,53.1860
2019-05-06T10:47:33.054Z,54.0039
2019-05-06T10:48:36.336Z,57.6843
2019-05-06T10:49:39.347Z,59.2163
2019-05-06T10:50:43.283Z,56.6345
2019-05-06T10:51:46.351Z,54.7974
2019-05-06T10:52:51.798Z,57.7576
2019-05-06T10:53:55.279Z,58.6548
2019-05-06T10:54:59.329Z,58.5510
2019-05-06T10:56:02.447Z,56.8909
2019-05-06T10:57:05.351Z,59.2346
2019-05-06T10:58:09.269Z,58.6975
2019-05-06T10:59:12.982Z,60.1013
2019-05-06T11:00:16.346Z,60.5835
2019-05-06T11:01:19.320Z,57.8003
2019-05-06T11:02:23.373Z,59.2285
2019-05-06T11:03:27.670Z,57.8735
2019-05-06T11:04:33.144Z,56.3232
2019-05-06T11:05:37.327Z,58.4595
2019-05-06T11:06:42.833Z,58.0261
2019-05-06T11:07:46.317Z,58.6365
2019-05-06T11:08:48.325Z,58.6121
2019-05-06T11:09:53.301Z,58.0994
2019-05-06T11:10:56.359Z,58.7097
2019-05-06T11:11:59.278Z,58.0750
2019-05-06T11:13:03.489Z,55.3284
2019-05-06T11:14:07.330Z,55.7068
2019-05-06T11:15:12.409Z,55.9082
2019-05-06T11:16:17.035Z,54.9988
2019-05-06T11:17:23.264Z,56.1401
2019-05-06T11:18:27.326Z,56.7505
2019-05-06T11:19:30.278Z,57.9712
2019-05-06T11:20:34.333Z,57.8674
2019-05-06T11:21:37.311Z,57.6904
2019-05-06T11:22:43.461Z,58.5083
2019-05-06T11:23:47.347Z,57.5928
2019-05-06T11:24:51.336Z,57.0068
2019-05-06T11:25:54.270Z,54.5654
2019-05-06T11:26:57.292Z,55.6091
2019-05-06T11:28:02.969Z,59.1736
2019-05-06T11:29:06.292Z,58.0505
2019-05-06T11:30:10.308Z,56.2195
2019-05-06T11:31:14.137Z,58.0505
2019-05-06T11:32:21.049Z,56.7566
2019-05-06T11:33:24.325Z,56.1462
2019-05-06T11:34:27.294Z,55.3284
2019-05-06T11:35:32.517Z,53.4180
2019-05-06T11:36:37.631Z,52.8076
2019-05-06T11:37:46.974Z,55.1758
2019-05-06T11:38:52.149Z,56.4026
2019-05-06T11:39:56.322Z,57.1411
2019-05-06T11:40:59.319Z,58.7769
2019-05-06T11:42:23.959Z,57.7515
2019-05-06T11:43:11.962Z,58.6731
2019-05-06T11:44:15.364Z,58.2886
2019-05-06T11:45:19.290Z,57.9834
2019-05-06T11:46:22.850Z,57.2693
2019-05-06T11:47:26.288Z,56.4514
2019-05-06T11:48:29.287Z,58.1116
2019-05-06T11:49:32.748Z,57.2937
2019-05-06T11:50:36.284Z,58.1116
2019-05-06T11:51:39.339Z,58.4229
2019-05-06T11:52:43.674Z,59.1370
2019-05-06T11:53:47.304Z,59.1370
2019-05-06T11:54:52.821Z,58.1909
2019-05-06T11:55:56.330Z,57.8796
2019-05-06T11:56:59.294Z,58.1909
2019-05-06T11:58:02.706Z,57.7820
2019-05-06T11:59:06.301Z,57.5500
2019-05-06T12:00:12.504Z,56.6284
2019-05-06T12:01:16.306Z,57.7515
2019-05-06T12:02:20.297Z,57.9590
2019-05-06T12:03:23.433Z,56.4026
2019-05-06T12:04:28.301Z,55.8899
2019-05-06T12:05:33.012Z,56.7078
2019-05-06T12:06:36.367Z,57.0862
2019-05-06T12:07:40.340Z,56.0669
2019-05-06T12:08:43.370Z,55.6580
2019-05-06T12:09:47.325Z,56.0425
2019-05-06T12:10:52.018Z,56.6528
2019-05-06T12:11:55.301Z,56.3232
2019-05-06T12:12:59.330Z,56.8298
2019-05-06T12:14:02.647Z,53.2410
2019-05-06T12:15:07.162Z,54.4617
2019-05-06T12:16:13.731Z,53.9551
2019-05-06T12:17:18.326Z,55.4565
2019-05-06T12:18:23.071Z,56.2683
2019-05-06T12:19:26.399Z,56.5735
2019-05-06T12:20:30.318Z,55.4260
2019-05-06T12:21:33.294Z,56.4453
2019-05-06T12:22:36.315Z,57.2571
2019-05-06T12:23:39.324Z,58.1726
2019-05-06T12:24:43.308Z,57.1289
2019-05-06T12:25:46.467Z,54.6936
2019-05-06T12:26:49.363Z,55.0964
2019-05-06T12:27:53.301Z,56.0120
2019-05-06T12:28:56.286Z,55.2246
2019-05-06T12:30:00.345Z,54.6143
2019-05-06T12:31:03.306Z,54.3091
2019-05-06T12:32:07.309Z,53.0151
2019-05-06T12:33:10.299Z,53.1128
2019-05-06T12:34:14.764Z,52.8076
2019-05-06T12:35:18.319Z,54.2603
2019-05-06T12:36:21.312Z,54.9744
2019-05-06T12:37:25.318Z,55.3772
2019-05-06T12:38:30.839Z,55.4077
2019-05-06T12:39:35.297Z,54.7913
2019-05-06T12:40:38.355Z,55.1270
2019-05-06T12:41:43.059Z,53.3936
2019-05-06T12:42:47.351Z,55.0232
2019-05-06T12:43:50.329Z,56.8848
2019-05-06T12:44:54.327Z,57.5989
2019-05-06T12:45:57.327Z,52.7039
2019-05-06T12:47:03.340Z,52.8320
2019-05-06T12:48:07.283Z,48.3398
2019-05-06T12:49:12.585Z,46.8323
2019-05-06T12:50:16.299Z,45.9167
2019-05-06T12:51:19.367Z,49.5117
2019-05-06T12:52:23.367Z,49.4324
2019-05-06T12:53:26.319Z,51.8860
2019-05-06T12:54:30.313Z,54.0283